createdAt,value
2022-09-28T00:00:51.056Z,98950.00
2022-09-28T00:04:03.208Z,98961.28
2022-09-28T00:07:05.632Z,98952.56
2022-09-28T00:10:08.427Z,98963.87
2022-09-28T00:13:10.869Z,98957.75
2022-09-28T00:16:14.234Z,98945.47
2022-09-28T00:19:16.952Z,98941.97
2022-09-28T00:22:19.557Z,98937.66
2022-09-28T00:25:22.099Z,98937.59
2022-09-28T00:28:24.574Z,98932.31
2022-09-28T00:31:32.671Z,98932.28
2022-09-28T00:34:36.868Z,98937.53
2022-09-28T00:37:39.405Z,98935.78
2022-09-28T00:40:41.997Z,98930.53
2022-09-28T00:43:44.544Z,98938.38
2022-09-28T00:46:47.279Z,98952.34
2022-09-28T00:49:53.962Z,98953.22
2022-09-28T00:53:07.623Z,98949.69
2022-09-28T00:56:12.260Z,98952.31
2022-09-28T00:59:15.148Z,98948.84
2022-09-28T01:02:17.811Z,98941.00
2022-09-28T01:05:20.876Z,98946.41
2022-09-28T01:08:25.516Z,98948.91
2022-09-28T01:11:29.868Z,98948.97
2022-09-28T01:14:32.608Z,98955.06
2022-09-28T01:17:35.148Z,98955.06
2022-09-28T01:20:39.248Z,98957.00
2022-09-28T01:24:14.275Z,98949.94
2022-09-28T01:27:36.140Z,98951.84
2022-09-28T01:30:58.057Z,98959.59
2022-09-28T01:34:04.031Z,98966.53
2022-09-28T01:37:09.689Z,98970.03
2022-09-28T01:40:15.011Z,98977.91
2022-09-28T01:43:19.876Z,98962.97
2022-09-28T01:46:25.271Z,98966.38
2022-09-28T01:49:31.606Z,98975.94
2022-09-28T01:52:40.580Z,98985.59
2022-09-28T01:55:47.705Z,98990.75
2022-09-28T01:58:57.681Z,98988.84
2022-09-28T02:02:09.967Z,98989.72
2022-09-28T02:05:39.394Z,98983.66
2022-09-28T02:08:48.651Z,98973.16
2022-09-28T02:11:58.155Z,98978.38
2022-09-28T02:15:08.312Z,98972.28
2022-09-28T02:18:11.552Z,98974.00
2022-09-28T02:21:22.250Z,98973.22
2022-09-28T02:24:33.408Z,98969.78
2022-09-28T02:27:48.601Z,98975.91
2022-09-28T02:30:51.344Z,98979.37
2022-09-28T02:33:54.974Z,98979.31
2022-09-28T02:36:57.836Z,98974.09
2022-09-28T02:40:00.639Z,98988.03
2022-09-28T02:43:18.806Z,98989.75
2022-09-28T02:46:30.448Z,98996.66
2022-09-28T02:49:49.963Z,98990.56
2022-09-28T02:52:52.139Z,98989.69
2022-09-28T02:55:57.859Z,98987.91
2022-09-28T02:59:00.447Z,98990.59
2022-09-28T03:02:12.070Z,98987.03
2022-09-28T03:05:18.880Z,98999.22
2022-09-28T03:08:24.781Z,99006.16
2022-09-28T03:11:30.547Z,99019.25
2022-09-28T03:14:33.408Z,99013.19
2022-09-28T03:17:35.837Z,99007.91
2022-09-28T03:20:38.600Z,99011.41
2022-09-28T03:23:41.656Z,99016.59
2022-09-28T03:26:44.480Z,99023.50
2022-09-28T03:29:47.126Z,99023.50
2022-09-28T03:32:59.565Z,99013.09
2022-09-28T03:36:02.640Z,99017.41
2022-09-28T03:39:05.745Z,99017.41
2022-09-28T03:42:08.104Z,99020.88
2022-09-28T03:45:11.879Z,99010.41
2022-09-28T03:48:14.699Z,99007.78
2022-09-28T03:51:18.027Z,99016.44
2022-09-28T03:54:20.307Z,99012.09
2022-09-28T03:57:23.053Z,99024.25
2022-09-28T04:00:25.479Z,99021.66
2022-09-28T04:03:28.272Z,99018.19
2022-09-28T04:06:30.564Z,99019.00
2022-09-28T04:09:33.755Z,99026.84
2022-09-28T04:12:36.183Z,99026.88
2022-09-28T04:15:40.414Z,99023.34
2022-09-28T04:18:42.706Z,99017.22
2022-09-28T04:21:45.721Z,99005.88
2022-09-28T04:24:48.377Z,99018.97
2022-09-28T04:28:09.567Z,99020.78
2022-09-28T04:31:13.863Z,99021.59
2022-09-28T04:34:18.725Z,99012.13
2022-09-28T04:37:21.117Z,99020.75
2022-09-28T04:40:23.981Z,99016.38
2022-09-28T04:43:26.836Z,99015.47
2022-09-28T04:46:30.154Z,99023.25
2022-09-28T04:49:35.328Z,99029.38
2022-09-28T04:52:38.276Z,99017.09
2022-09-28T04:55:40.543Z,99017.91
2022-09-28T04:58:43.388Z,99022.22
2022-09-28T05:01:47.610Z,99020.41
2022-09-28T05:04:53.620Z,99017.00
2022-09-28T05:07:59.810Z,99016.16
2022-09-28T05:11:04.418Z,99029.19
2022-09-28T05:14:06.920Z,99037.00
2022-09-28T05:17:10.093Z,99032.75
2022-09-28T05:20:13.182Z,99036.19
2022-09-28T05:23:17.437Z,99047.41
2022-09-28T05:26:19.823Z,99035.25
2022-09-28T05:29:22.915Z,99024.81
2022-09-28T05:32:25.841Z,99030.81
2022-09-28T05:35:31.188Z,99036.94
2022-09-28T05:38:33.464Z,99032.59
2022-09-28T05:41:37.051Z,99034.47
2022-09-28T05:44:40.350Z,99039.75
2022-09-28T05:47:44.006Z,99038.00
2022-09-28T05:50:52.386Z,99039.88
2022-09-28T05:54:01.781Z,99024.34
2022-09-28T05:57:07.382Z,99022.75
2022-09-28T06:00:10.562Z,99015.88
2022-09-28T06:03:14.749Z,99017.75
2022-09-28T06:06:17.509Z,99010.00
2022-09-28T06:09:22.707Z,99016.13
2022-09-28T06:12:29.108Z,99014.50
2022-09-28T06:15:33.649Z,99028.53
2022-09-28T06:18:36.535Z,99026.97
2022-09-28T06:21:38.996Z,99031.44
2022-09-28T06:24:42.188Z,99024.63
2022-09-28T06:27:53.454Z,99021.12
2022-09-28T06:30:56.227Z,99016.84
2022-09-28T06:34:01.888Z,99017.84
2022-09-28T06:37:04.723Z,99018.81
2022-09-28T06:40:07.703Z,99019.78
2022-09-28T06:43:12.627Z,99020.75
2022-09-28T06:46:21.625Z,99021.69
2022-09-28T06:49:27.777Z,99027.88
2022-09-28T06:52:31.735Z,99029.66
2022-09-28T06:55:35.349Z,99034.91
2022-09-28T06:58:37.831Z,99039.25
2022-09-28T07:01:41.081Z,99042.81
2022-09-28T07:04:43.620Z,99042.81
2022-09-28T07:07:46.586Z,99041.06
2022-09-28T07:10:56.143Z,99033.19
2022-09-28T07:13:59.096Z,99039.28
2022-09-28T07:17:13.201Z,99036.56
2022-09-28T07:20:19.327Z,99036.56
2022-09-28T07:23:22.167Z,99034.72
2022-09-28T07:26:34.421Z,99035.56
2022-09-28T07:29:36.946Z,99038.13
2022-09-28T07:32:41.783Z,99025.78
2022-09-28T07:35:52.545Z,99021.09
2022-09-28T07:38:55.879Z,99025.72
2022-09-28T07:42:02.484Z,99022.00
2022-09-28T07:45:07.055Z,99015.19
2022-09-28T07:48:09.417Z,99012.09
2022-09-28T07:51:12.425Z,99001.50
2022-09-28T07:54:14.708Z,99000.97
2022-09-28T07:57:19.506Z,98993.00
2022-09-28T08:00:22.787Z,98986.19
2022-09-28T08:03:25.487Z,98986.75
2022-09-28T08:06:30.097Z,98990.25
2022-09-28T08:09:32.954Z,98988.66
2022-09-28T08:12:40.741Z,98978.69
2022-09-28T08:15:45.331Z,98985.25
2022-09-28T08:18:49.335Z,98981.91
2022-09-28T08:21:52.177Z,98985.84
2022-09-28T08:24:54.576Z,98976.84
2022-09-28T08:27:57.558Z,98957.97
2022-09-28T08:31:03.940Z,98950.72
2022-09-28T08:34:06.815Z,98948.38
2022-09-28T08:37:11.843Z,98953.59
2022-09-28T08:40:24.641Z,98951.19
2022-09-28T08:43:46.406Z,98951.81
2022-09-28T08:46:53.690Z,98953.00
2022-09-28T08:49:57.144Z,98972.03
2022-09-28T08:53:05.962Z,98974.97
2022-09-28T08:56:15.871Z,98978.41
2022-09-28T08:59:21.394Z,98979.50
2022-09-28T09:02:28.132Z,98972.69
2022-09-28T09:05:49.633Z,98967.22
2022-09-28T09:08:57.323Z,98968.91
2022-09-28T09:12:07.777Z,98962.94
2022-09-28T09:15:11.456Z,98967.56
2022-09-28T09:18:33.196Z,98959.28
2022-09-28T09:21:43.484Z,98968.59
2022-09-28T09:24:50.956Z,98959.25
2022-09-28T09:27:54.920Z,98965.13
2022-09-28T09:31:08.394Z,98960.03
2022-09-28T09:34:12.015Z,98956.94
2022-09-28T09:37:24.981Z,98955.66
2022-09-28T09:40:27.688Z,98950.94
2022-09-28T09:43:42.266Z,98955.69
2022-09-28T09:46:54.241Z,98948.25
2022-09-28T09:50:05.498Z,98946.12
2022-09-28T09:53:13.662Z,98943.38
2022-09-28T09:56:23.143Z,98943.16
2022-09-28T09:59:33.757Z,98950.50
2022-09-28T10:02:38.963Z,98956.91
2022-09-28T10:05:43.143Z,98957.34
2022-09-28T10:08:50.353Z,98958.59
2022-09-28T10:11:54.020Z,98950.94
2022-09-28T10:14:56.772Z,98943.88
2022-09-28T10:18:06.812Z,98956.94
2022-09-28T10:21:15.101Z,98950.41
2022-09-28T10:24:22.997Z,98961.03
2022-09-28T10:27:30.783Z,98958.31
2022-09-28T10:30:44.557Z,98956.81
2022-09-28T10:33:47.305Z,98962.97
2022-09-28T10:37:06.883Z,98955.69
2022-09-28T10:40:28.265Z,98959.38
2022-09-28T10:43:34.622Z,98950.09
2022-09-28T10:46:38.857Z,98958.78
2022-09-28T10:49:47.276Z,98954.31
2022-09-28T10:52:50.206Z,98969.84
2022-09-28T10:55:59.342Z,98955.06
2022-09-28T10:59:01.978Z,98952.41
2022-09-28T11:02:26.227Z,98944.47
2022-09-28T11:05:30.138Z,98947.13
2022-09-28T11:08:36.288Z,98936.19
2022-09-28T11:11:42.931Z,98937.00
2022-09-28T11:14:46.566Z,98931.03
2022-09-28T11:17:49.391Z,98924.78
2022-09-28T11:20:52.882Z,98932.97
2022-09-28T11:24:07.320Z,98925.66
2022-09-28T11:27:18.918Z,98921.47
2022-09-28T11:30:28.046Z,98918.87
2022-09-28T11:33:33.619Z,98919.06
2022-09-28T11:37:02.275Z,98913.59
2022-09-28T11:40:12.737Z,98911.91
2022-09-28T11:43:24.202Z,98919.44
2022-09-28T11:46:41.641Z,98919.37
2022-09-28T11:49:52.417Z,98910.34
2022-09-28T11:53:04.603Z,98920.88
2022-09-28T11:56:19.811Z,98947.28
2022-09-28T11:59:39.790Z,98911.25
2022-09-28T12:02:46.436Z,98907.72
2022-09-28T12:05:52.558Z,98898.78
2022-09-28T12:08:58.400Z,98899.59
2022-09-28T12:12:03.945Z,98893.28
2022-09-28T12:15:13.731Z,98883.75
2022-09-28T12:18:28.547Z,98879.59
2022-09-28T12:21:34.006Z,98877.88
2022-09-28T12:24:38.826Z,98873.56
2022-09-28T12:27:53.319Z,98864.22
2022-09-28T12:30:58.999Z,98873.09
2022-09-28T12:34:02.267Z,98872.34
2022-09-28T12:37:09.190Z,98863.63
2022-09-28T12:40:30.667Z,98868.91
2022-09-28T12:43:33.619Z,98844.09
2022-09-28T12:46:36.722Z,98841.38
2022-09-28T12:53:07.958Z,98836.00
2022-09-28T12:56:16.763Z,98841.16
2022-09-28T12:59:28.111Z,98834.03
2022-09-28T13:02:39.988Z,98834.94
2022-09-28T13:05:45.676Z,98830.62
2022-09-28T13:08:56.566Z,98842.19
2022-09-28T13:12:14.037Z,98838.16
2022-09-28T13:15:29.438Z,98847.28
2022-09-28T13:18:35.062Z,98842.53
2022-09-28T13:21:44.054Z,98829.03
2022-09-28T13:24:47.440Z,98833.09
2022-09-28T13:28:01.569Z,98828.63
2022-09-28T13:31:05.722Z,98846.38
2022-09-28T13:34:18.369Z,98847.16
2022-09-28T13:37:25.706Z,98844.13
2022-09-28T13:40:48.414Z,98834.09
2022-09-28T13:44:03.200Z,98849.59
2022-09-28T13:47:26.461Z,98834.25
2022-09-28T13:50:36.748Z,98821.13
2022-09-28T13:53:51.639Z,98831.81
2022-09-28T13:57:09.510Z,98819.81
2022-09-28T14:00:12.087Z,98825.66
2022-09-28T14:03:30.779Z,98829.44
2022-09-28T14:06:33.373Z,98821.66
2022-09-28T14:09:46.789Z,98824.56
2022-09-28T14:12:51.358Z,98837.09
2022-09-28T14:16:14.795Z,98833.38
2022-09-28T14:19:24.394Z,98833.09
2022-09-28T14:22:39.537Z,98841.66
2022-09-28T14:25:46.672Z,98832.03
2022-09-28T14:29:02.111Z,98817.19
2022-09-28T14:32:10.806Z,98810.59
2022-09-28T14:35:20.852Z,98810.53
2022-09-28T14:38:44.805Z,98818.69
2022-09-28T14:41:47.278Z,98807.19
2022-09-28T14:45:06.377Z,98808.81
2022-09-28T14:48:15.239Z,98806.22
2022-09-28T14:51:30.237Z,98807.47
2022-09-28T14:54:45.391Z,98822.53
2022-09-28T14:57:52.128Z,98826.03
2022-09-28T15:00:58.522Z,98805.06
2022-09-28T15:04:04.969Z,98812.94
2022-09-28T15:07:19.304Z,98810.41
2022-09-28T15:10:27.731Z,98809.69
2022-09-28T15:13:33.744Z,98801.84
2022-09-28T15:16:36.739Z,98807.06
2022-09-28T15:20:02.637Z,98801.88
2022-09-28T15:23:05.404Z,98799.41
2022-09-28T15:26:20.001Z,98789.63
2022-09-28T15:29:28.217Z,98789.50
2022-09-28T15:32:32.165Z,98793.88
2022-09-28T15:35:35.702Z,98781.66
2022-09-28T15:38:38.207Z,98781.66
2022-09-28T15:41:42.898Z,98791.53
2022-09-28T15:45:08.845Z,98783.75
2022-09-28T15:48:29.075Z,98789.84
2022-09-28T15:51:44.686Z,98791.69
2022-09-28T15:54:47.363Z,98800.59
2022-09-28T15:57:50.261Z,98805.97
2022-09-28T16:01:12.940Z,98810.38
2022-09-28T16:04:35.266Z,98799.00
2022-09-28T16:07:41.646Z,98795.41
2022-09-28T16:10:53.413Z,98796.34
2022-09-28T16:14:02.663Z,98798.16
2022-09-28T16:17:05.637Z,98795.53
2022-09-28T16:20:22.309Z,98804.50
2022-09-28T16:23:33.242Z,98802.03
2022-09-28T16:26:39.028Z,98800.22
2022-09-28T16:29:45.296Z,98801.12
2022-09-28T16:32:51.803Z,98803.84
2022-09-28T16:35:54.595Z,98815.16
2022-09-28T16:38:57.314Z,98812.59
2022-09-28T16:42:03.156Z,98803.81
2022-09-28T16:45:06.776Z,98808.22
2022-09-28T16:48:13.639Z,98809.12
2022-09-28T16:51:16.828Z,98814.41
2022-09-28T16:54:42.465Z,98812.72
2022-09-28T16:57:46.300Z,98815.31
2022-09-28T17:00:49.176Z,98811.00
2022-09-28T17:03:51.677Z,98820.72
2022-09-28T17:06:55.565Z,98811.94
2022-09-28T17:09:58.016Z,98818.06
2022-09-28T17:13:01.036Z,98823.31
2022-09-28T17:16:06.329Z,98810.31
2022-09-28T17:19:21.210Z,98811.25
2022-09-28T17:22:23.860Z,98809.53
2022-09-28T17:25:27.240Z,98811.25
2022-09-28T17:28:32.102Z,98806.09
2022-09-28T17:31:35.285Z,98817.50
2022-09-28T17:34:37.546Z,98817.53
2022-09-28T17:37:43.374Z,98820.97
2022-09-28T17:40:48.015Z,98821.13
2022-09-28T17:43:51.217Z,98817.69
2022-09-28T17:46:53.902Z,98823.94
2022-09-28T17:49:58.736Z,98823.84
2022-09-28T17:53:05.963Z,98824.94
2022-09-28T17:56:09.897Z,98821.53
2022-09-28T17:59:17.484Z,98827.66
2022-09-28T18:02:20.203Z,98827.75
2022-09-28T18:05:24.936Z,98831.34
2022-09-28T18:08:28.104Z,98832.22
2022-09-28T18:11:31.642Z,98839.22
2022-09-28T18:14:35.741Z,98840.91
2022-09-28T18:17:39.188Z,98848.00
2022-09-28T18:20:42.126Z,98839.25
2022-09-28T18:23:44.691Z,98848.94
2022-09-28T18:26:47.925Z,98847.31
2022-09-28T18:29:50.745Z,98843.84
2022-09-28T18:32:53.772Z,98851.72
2022-09-28T18:35:56.375Z,98850.03
2022-09-28T18:39:00.963Z,98855.28
2022-09-28T18:42:04.209Z,98850.00
2022-09-28T18:45:08.319Z,98857.09
2022-09-28T18:48:10.967Z,98859.75
2022-09-28T18:51:13.451Z,98862.34
2022-09-28T18:54:17.074Z,98864.16
2022-09-28T18:57:19.593Z,98861.53
2022-09-28T19:00:22.187Z,98854.59
2022-09-28T19:03:24.760Z,98867.72
2022-09-28T19:06:28.068Z,98857.19
2022-09-28T19:09:32.276Z,98867.72
2022-09-28T19:12:34.893Z,98863.38
2022-09-28T19:15:37.425Z,98870.34
2022-09-28T19:18:40.015Z,98873.91
2022-09-28T19:21:43.425Z,98869.56
2022-09-28T19:24:47.468Z,98870.44
2022-09-28T19:27:52.471Z,98868.66
2022-09-28T19:30:56.739Z,98872.19
2022-09-28T19:33:59.195Z,98864.31
2022-09-28T19:37:04.891Z,98866.09
2022-09-28T19:40:08.073Z,98861.72
2022-09-28T19:43:10.643Z,98861.69
2022-09-28T19:46:13.385Z,98866.97
2022-09-28T19:49:21.134Z,98859.13
2022-09-28T19:52:23.800Z,98861.75
2022-09-28T19:55:31.908Z,98865.28
2022-09-28T19:58:36.390Z,98863.50
2022-09-28T20:01:39.237Z,98858.25
2022-09-28T20:04:42.089Z,98853.88
2022-09-28T20:07:44.408Z,98854.75
2022-09-28T20:10:52.396Z,98852.16
2022-09-28T20:13:55.413Z,98843.41
2022-09-28T20:16:58.314Z,98851.28
2022-09-28T20:20:03.646Z,98852.13
2022-09-28T20:23:06.464Z,98850.41
2022-09-28T20:26:11.837Z,98842.53
2022-09-28T20:29:14.594Z,98845.16
2022-09-28T20:32:19.188Z,98848.66
2022-09-28T20:35:32.267Z,98848.66
2022-09-28T20:38:40.644Z,98844.28
2022-09-28T20:41:43.521Z,98847.78
2022-09-28T20:44:46.003Z,98840.78
2022-09-28T20:47:48.843Z,98839.00
2022-09-28T20:51:01.420Z,98830.28
2022-09-28T20:54:04.226Z,98832.03
2022-09-28T20:57:17.665Z,98832.00
2022-09-28T21:00:22.923Z,98827.63
2022-09-28T21:03:25.454Z,98825.91
2022-09-28T21:06:29.598Z,98840.78
2022-09-28T21:09:32.502Z,98823.28
2022-09-28T21:12:36.977Z,98828.56
2022-09-28T21:15:39.449Z,98819.81
2022-09-28T21:18:42.287Z,98815.44
2022-09-28T21:21:44.908Z,98809.28
2022-09-28T21:24:47.624Z,98808.47
2022-09-28T21:27:50.558Z,98814.59
2022-09-28T21:30:53.439Z,98802.31
2022-09-28T21:33:56.114Z,98796.22
2022-09-28T21:36:59.006Z,98808.47
2022-09-28T21:40:02.591Z,98814.59
2022-09-28T21:43:05.284Z,98807.62
2022-09-28T21:46:07.631Z,98811.09
2022-09-28T21:49:11.018Z,98818.06
2022-09-28T21:52:13.225Z,98810.19
2022-09-28T21:55:15.991Z,98813.72
2022-09-28T21:58:23.151Z,98816.34
2022-09-28T22:01:26.175Z,98804.13
2022-09-28T22:04:28.801Z,98815.50
2022-09-28T22:07:31.233Z,98825.16
2022-09-28T22:10:33.711Z,98819.91
2022-09-28T22:13:40.284Z,98816.44
2022-09-28T22:16:43.377Z,98815.53
2022-09-28T22:19:45.859Z,98819.91
2022-09-28T22:22:50.941Z,98813.78
2022-09-28T22:25:59.576Z,98815.56
2022-09-28T22:29:06.633Z,98816.41
2022-09-28T22:32:09.159Z,98808.56
2022-09-28T22:35:14.019Z,98804.19
2022-09-28T22:38:17.489Z,98797.19
2022-09-28T22:41:23.055Z,98798.91
2022-09-28T22:44:25.727Z,98792.78
2022-09-28T22:47:28.227Z,98795.41
2022-09-28T22:50:31.585Z,98797.13
2022-09-28T22:53:35.396Z,98792.78
2022-09-28T22:56:37.798Z,98795.41
2022-09-28T22:59:40.290Z,98797.97
2022-09-28T23:02:43.094Z,98805.84
2022-09-28T23:05:52.376Z,98802.38
2022-09-28T23:08:55.044Z,98803.22
2022-09-28T23:11:57.645Z,98806.72
2022-09-28T23:15:00.114Z,98807.59
2022-09-28T23:18:02.641Z,98812.81
2022-09-28T23:21:06.525Z,98800.59
2022-09-28T23:24:11.015Z,98796.25
2022-09-28T23:27:13.634Z,98803.22
2022-09-28T23:30:17.090Z,98799.75
2022-09-28T23:33:21.012Z,98793.62
2022-09-28T23:36:23.676Z,98798.84
2022-09-28T23:39:26.173Z,98795.34
2022-09-28T23:42:29.058Z,98787.50
2022-09-28T23:45:31.919Z,98798.84
2022-09-28T23:48:34.462Z,98796.19
2022-09-28T23:51:37.062Z,98800.59
2022-09-28T23:54:39.763Z,98804.06
2022-09-28T23:57:45.188Z,98806.69
